createdAt,value
2018-04-28T00:01:39.797Z,4.37
2018-04-28T00:04:14.138Z,4.43
2018-04-28T00:06:48.709Z,4.57
2018-04-28T00:09:22.941Z,4.30
2018-04-28T00:11:57.616Z,3.53
2018-04-28T00:14:32.181Z,4.40
2018-04-28T00:17:07.959Z,4.20
2018-04-28T00:19:41.985Z,4.20
2018-04-28T00:22:20.809Z,4.03
2018-04-28T00:24:59.357Z,4.40
2018-04-28T00:27:37.620Z,4.40
2018-04-28T00:30:16.203Z,4.23
2018-04-28T00:32:50.588Z,4.10
2018-04-28T00:35:33.175Z,4.00
2018-04-28T00:38:07.197Z,3.70
2018-04-28T00:40:42.566Z,4.00
2018-04-28T00:43:19.236Z,4.50
2018-04-28T00:45:57.577Z,4.47
2018-04-28T00:48:32.497Z,4.50
2018-04-28T00:51:24.573Z,4.00
2018-04-28T00:54:03.987Z,4.30
2018-04-28T00:56:38.238Z,5.20
2018-04-28T00:59:18.853Z,5.50
2018-04-28T01:02:08.128Z,4.60
2018-04-28T01:04:44.585Z,4.73
2018-04-28T01:07:22.791Z,4.30
2018-04-28T01:10:00.786Z,4.60
2018-04-28T01:12:38.907Z,4.90
2018-04-28T01:15:30.558Z,4.37
2018-04-28T01:18:11.322Z,4.43
2018-04-28T01:23:44.837Z,4.60
2018-04-28T01:29:30.741Z,4.67
2018-04-28T01:32:06.994Z,4.50
2018-04-28T01:34:44.717Z,4.90
2018-04-28T01:37:23.625Z,4.90
2018-04-28T01:40:12.435Z,4.20
2018-04-28T01:42:53.754Z,4.87
2018-04-28T01:45:30.406Z,4.30
2018-04-28T01:51:03.641Z,4.20
2018-04-28T01:56:41.837Z,5.20
2018-04-28T01:59:15.656Z,4.90
2018-04-28T02:01:50.393Z,4.60
2018-04-28T02:04:24.493Z,5.10
2018-04-28T02:07:05.742Z,4.97
2018-04-28T02:09:41.142Z,4.80
2018-04-28T02:12:21.228Z,5.07
2018-04-28T02:15:00.940Z,4.93
2018-04-28T02:17:41.173Z,4.70
2018-04-28T02:20:23.233Z,5.27
2018-04-28T02:23:05.038Z,5.50
2018-04-28T02:25:47.301Z,5.03
2018-04-28T02:28:37.747Z,4.70
2018-04-28T02:31:11.610Z,4.80
2018-04-28T02:33:47.250Z,5.73
2018-04-28T02:36:25.782Z,5.13
2018-04-28T02:39:00.338Z,5.03
2018-04-28T02:44:38.133Z,4.33
2018-04-28T02:47:17.273Z,4.67
2018-04-28T02:49:51.805Z,4.80
2018-04-28T02:52:40.482Z,4.90
2018-04-28T03:08:43.457Z,4.73
2018-04-28T03:11:19.719Z,4.30
2018-04-28T03:13:54.357Z,4.70
2018-04-28T03:16:32.124Z,5.17
2018-04-28T03:19:12.461Z,5.40
2018-04-28T03:21:48.076Z,5.53
2018-04-28T03:37:59.641Z,5.30
2018-04-28T03:40:35.037Z,4.80
2018-04-28T03:56:39.689Z,4.50
2018-04-28T03:59:25.781Z,5.13
2018-04-28T04:02:12.165Z,4.63
2018-04-28T04:18:41.697Z,4.97
2018-04-28T04:21:19.245Z,5.43
2018-04-28T04:24:05.769Z,5.60
2018-04-28T04:26:45.309Z,6.00
2018-04-28T04:29:44.121Z,6.10
2018-04-28T04:32:19.853Z,6.10
2018-04-28T04:34:58.525Z,5.23
2018-04-28T04:37:34.631Z,6.00
2018-04-28T04:40:35.865Z,5.57
2018-04-28T04:43:19.021Z,6.20
2018-04-28T04:46:04.868Z,5.50
2018-04-28T05:02:08.093Z,5.63
2018-04-28T05:18:18.702Z,5.37
2018-04-28T05:20:58.825Z,5.67
2018-04-28T05:37:30.001Z,5.63
2018-04-28T05:40:06.986Z,5.70
2018-04-28T05:42:47.651Z,5.30
2018-04-28T05:45:36.541Z,6.07
2018-04-28T05:48:18.415Z,5.77
2018-04-28T05:51:03.641Z,4.90
2018-04-28T05:53:54.292Z,5.33
2018-04-28T05:56:40.223Z,4.70
2018-04-28T06:13:01.258Z,5.17
2018-04-28T06:15:38.609Z,3.77
2018-04-28T06:18:16.446Z,3.50
2018-04-28T06:20:50.530Z,4.93
2018-04-28T06:23:24.829Z,4.63
2018-04-28T06:25:59.458Z,4.83
2018-04-28T06:28:33.877Z,4.40
2018-04-28T06:31:08.657Z,4.43
2018-04-28T06:33:43.261Z,4.20
2018-04-28T06:36:17.858Z,4.47
2018-04-28T06:38:52.405Z,4.40
2018-04-28T06:41:27.021Z,4.00
2018-04-28T06:44:02.073Z,4.60
2018-04-28T06:46:36.359Z,4.30
2018-04-28T06:49:10.995Z,3.60
2018-04-28T06:51:45.597Z,4.00
2018-04-28T06:54:20.637Z,4.50
2018-04-28T06:56:55.086Z,4.10
2018-04-28T06:59:29.864Z,3.70
2018-04-28T07:02:04.431Z,4.53
2018-04-28T07:04:38.937Z,3.97
2018-04-28T07:07:13.517Z,3.70
2018-04-28T07:09:48.018Z,3.90
2018-04-28T07:12:22.730Z,4.03
2018-04-28T07:14:57.161Z,3.60
2018-04-28T07:17:31.974Z,4.40
2018-04-28T07:20:06.473Z,3.53
2018-04-28T07:22:41.056Z,3.70
2018-04-28T07:25:15.660Z,3.40
2018-04-28T07:27:50.349Z,3.70
2018-04-28T07:30:25.177Z,3.27
2018-04-28T07:32:59.937Z,3.27
2018-04-28T07:35:34.697Z,3.27
2018-04-28T07:38:09.289Z,2.60
2018-04-28T07:40:44.006Z,3.00
2018-04-28T07:43:18.681Z,2.80
2018-04-28T07:45:53.610Z,2.73
2018-04-28T07:48:27.929Z,2.87
2018-04-28T07:51:02.937Z,2.80
2018-04-28T07:53:37.726Z,2.20
2018-04-28T07:56:11.953Z,3.20
2018-04-28T07:58:47.257Z,3.60
2018-04-28T08:01:21.784Z,2.40
2018-04-28T08:03:56.385Z,2.60
2018-04-28T08:06:30.901Z,2.97
2018-04-28T08:09:05.389Z,3.30
2018-04-28T08:11:40.285Z,3.13
2018-04-28T08:14:15.085Z,2.77
2018-04-28T08:16:49.829Z,2.63
2018-04-28T08:19:24.453Z,3.50
2018-04-28T08:21:58.993Z,3.53
2018-04-28T08:24:33.897Z,3.20
2018-04-28T08:27:08.612Z,3.20
2018-04-28T08:29:43.213Z,3.10
2018-04-28T08:32:18.097Z,3.40
2018-04-28T08:34:52.825Z,3.90
2018-04-28T08:37:27.606Z,3.30
2018-04-28T08:40:02.277Z,3.70
2018-04-28T08:42:36.953Z,3.50
2018-04-28T08:45:11.861Z,2.93
2018-04-28T08:47:46.553Z,3.00
2018-04-28T08:50:21.065Z,3.30
2018-04-28T08:52:55.784Z,4.13
2018-04-28T08:55:30.539Z,3.07
2018-04-28T08:58:05.373Z,3.30
2018-04-28T09:00:40.605Z,3.40
2018-04-28T09:03:15.269Z,3.20
2018-04-28T09:05:50.672Z,3.83
2018-04-28T09:08:25.133Z,3.20
2018-04-28T09:10:59.937Z,3.60
2018-04-28T09:13:34.691Z,3.50
2018-04-28T09:16:09.433Z,3.87
2018-04-28T09:18:44.008Z,3.10
2018-04-28T09:21:18.999Z,5.80
2018-04-28T09:23:53.906Z,4.10
2018-04-28T09:26:28.857Z,4.33
2018-04-28T09:29:03.565Z,3.70
2018-04-28T09:31:38.321Z,3.50
2018-04-28T09:34:13.241Z,4.00
2018-04-28T09:36:48.761Z,4.30
2018-04-28T09:39:23.528Z,4.63
2018-04-28T09:41:58.385Z,4.93
2018-04-28T09:44:33.160Z,5.17
2018-04-28T09:47:11.057Z,5.40
2018-04-28T09:49:46.114Z,5.23
2018-04-28T09:52:21.082Z,6.27
2018-04-28T09:54:55.878Z,7.50
2018-04-28T09:57:30.801Z,5.20
2018-04-28T10:00:16.529Z,5.73
2018-04-28T10:02:51.301Z,5.13
2018-04-28T10:05:26.561Z,5.27
2018-04-28T10:08:01.444Z,5.10
2018-04-28T10:10:36.551Z,5.57
2018-04-28T10:13:11.666Z,5.90
2018-04-28T10:15:46.713Z,5.00
2018-04-28T10:18:21.648Z,5.60
2018-04-28T10:20:56.580Z,5.37
2018-04-28T10:23:31.422Z,5.20
2018-04-28T10:26:05.909Z,4.60
2018-04-28T10:28:40.754Z,5.17
2018-04-28T10:31:15.465Z,4.57
2018-04-28T10:33:50.041Z,4.30
2018-04-28T10:36:24.850Z,4.93
2018-04-28T10:38:59.556Z,5.20
2018-04-28T10:41:34.476Z,4.27
2018-04-28T10:44:09.250Z,4.67
2018-04-28T10:46:44.102Z,4.27
2018-04-28T10:49:18.697Z,5.40
2018-04-28T10:51:53.312Z,4.20
2018-04-28T10:54:28.006Z,5.00
2018-04-28T10:57:02.781Z,4.20
2018-04-28T10:59:37.492Z,4.50
2018-04-28T11:02:12.538Z,4.33
2018-04-28T11:04:47.375Z,3.70
2018-04-28T11:07:22.220Z,4.60
2018-04-28T11:09:56.925Z,3.70
2018-04-28T11:12:31.767Z,4.60
2018-04-28T11:15:06.741Z,4.50
2018-04-28T11:17:41.518Z,3.30
2018-04-28T11:20:16.362Z,4.70
2018-04-28T11:22:51.280Z,3.80
2018-04-28T11:25:26.408Z,4.00
2018-04-28T11:28:01.253Z,2.80
2018-04-28T11:30:35.656Z,4.13
2018-04-28T11:33:10.708Z,4.07
2018-04-28T11:35:45.645Z,3.90
2018-04-28T11:38:20.542Z,3.70
2018-04-28T11:40:55.162Z,3.90
2018-04-28T11:43:30.241Z,4.30
2018-04-28T11:46:05.024Z,3.80
2018-04-28T11:48:40.175Z,4.87
2018-04-28T11:51:14.917Z,4.80
2018-04-28T11:53:49.763Z,4.27
2018-04-28T11:56:24.474Z,4.93
2018-04-28T11:58:59.434Z,4.10
2018-04-28T12:01:34.082Z,3.63
2018-04-28T12:04:09.250Z,4.30
2018-04-28T12:06:44.346Z,4.00
2018-04-28T12:09:19.072Z,3.60
2018-04-28T12:11:53.663Z,5.17
2018-04-28T12:14:28.337Z,4.80
2018-04-28T12:17:03.019Z,4.33
2018-04-28T12:19:37.712Z,4.47
2018-04-28T12:22:12.502Z,5.20
2018-04-28T12:24:47.062Z,4.67
2018-04-28T12:27:22.065Z,5.43
2018-04-28T12:29:56.897Z,5.50
2018-04-28T12:32:31.523Z,5.63
2018-04-28T12:35:06.337Z,5.10
2018-04-28T12:37:40.994Z,5.40
2018-04-28T12:40:15.597Z,6.00
2018-04-28T12:42:50.370Z,5.80
2018-04-28T12:45:25.054Z,5.40
2018-04-28T12:47:59.485Z,7.97
2018-04-28T12:50:34.272Z,6.27
2018-04-28T12:53:08.904Z,5.93
2018-04-28T12:55:43.546Z,5.60
2018-04-28T12:58:18.203Z,5.87
2018-04-28T13:00:52.815Z,5.40
2018-04-28T13:03:27.517Z,5.23
2018-04-28T13:06:02.167Z,4.80
2018-04-28T13:08:36.722Z,4.57
2018-04-28T13:11:11.438Z,4.90
2018-04-28T13:13:45.922Z,4.60
2018-04-28T13:16:20.446Z,5.10
2018-04-28T13:19:04.411Z,5.50
2018-04-28T13:21:39.632Z,5.33
2018-04-28T13:24:14.272Z,4.80
2018-04-28T13:26:48.917Z,5.33
2018-04-28T13:29:23.613Z,5.20
2018-04-28T13:31:58.255Z,6.20
2018-04-28T13:34:32.973Z,5.97
2018-04-28T13:37:07.654Z,5.10
2018-04-28T13:39:42.335Z,5.50
2018-04-28T13:42:16.930Z,5.60
2018-04-28T13:44:51.651Z,5.40
2018-04-28T13:47:26.302Z,5.40
2018-04-28T13:50:00.909Z,4.63
2018-04-28T13:52:35.516Z,5.37
2018-04-28T13:55:09.829Z,6.10
2018-04-28T13:57:44.752Z,6.13
2018-04-28T14:00:19.464Z,6.97
2018-04-28T14:02:54.172Z,6.90
2018-04-28T14:05:28.959Z,6.37
2018-04-28T14:08:03.224Z,6.30
2018-04-28T14:10:37.930Z,7.30
2018-04-28T14:13:12.622Z,8.07
2018-04-28T14:15:47.230Z,7.00
2018-04-28T14:18:21.902Z,6.70
2018-04-28T14:20:56.158Z,6.57
2018-04-28T14:23:30.847Z,5.70
2018-04-28T14:26:05.315Z,6.23
2018-04-28T14:28:39.892Z,7.07
2018-04-28T14:31:14.786Z,7.27
2018-04-28T14:33:49.375Z,7.87
2018-04-28T14:36:24.058Z,7.80
2018-04-28T14:38:58.829Z,8.00
2018-04-28T14:41:33.341Z,7.70
2018-04-28T14:44:08.042Z,6.63
2018-04-28T14:46:42.659Z,6.93
2018-04-28T14:49:17.250Z,8.73
2018-04-28T14:51:51.882Z,7.20
2018-04-28T14:54:26.660Z,7.10
2018-04-28T14:57:01.371Z,6.97
2018-04-28T14:59:35.985Z,6.73
2018-04-28T15:02:10.682Z,6.53
2018-04-28T15:04:45.303Z,6.40
2018-04-28T15:07:20.081Z,6.50
2018-04-28T15:09:54.831Z,6.40
2018-04-28T15:12:30.315Z,6.10
2018-04-28T15:15:04.581Z,7.60
2018-04-28T15:17:39.276Z,6.77
2018-04-28T15:20:13.891Z,6.70
2018-04-28T15:22:48.795Z,7.90
2018-04-28T15:25:23.529Z,6.90
2018-04-28T15:27:58.235Z,6.60
2018-04-28T15:30:32.862Z,6.30
2018-04-28T15:33:07.699Z,6.53
2018-04-28T15:35:42.490Z,7.20
2018-04-28T15:38:18.018Z,7.60
2018-04-28T15:40:52.718Z,7.03
2018-04-28T15:43:27.306Z,7.90
2018-04-28T15:46:01.938Z,7.90
2018-04-28T15:48:36.654Z,6.60
2018-04-28T15:51:11.054Z,7.17
2018-04-28T15:53:45.702Z,7.67
2018-04-28T15:56:20.590Z,7.60
2018-04-28T15:58:55.410Z,7.17
2018-04-28T16:01:29.481Z,7.30
2018-04-28T16:04:04.394Z,8.33
2018-04-28T16:06:38.907Z,8.73
2018-04-28T16:09:13.673Z,8.40
2018-04-28T16:11:49.038Z,7.87
2018-04-28T16:14:23.634Z,7.70
2018-04-28T16:16:58.222Z,7.73
2018-04-28T16:19:32.822Z,8.50
2018-04-28T16:22:07.434Z,8.20
2018-04-28T16:24:42.357Z,7.10
2018-04-28T16:27:16.989Z,8.00
2018-04-28T16:29:51.730Z,8.20
2018-04-28T16:32:26.450Z,9.27
2018-04-28T16:35:01.070Z,9.53
2018-04-28T16:37:35.569Z,8.10
2018-04-28T16:40:10.232Z,8.27
2018-04-28T16:42:44.841Z,7.00
2018-04-28T16:45:19.620Z,7.20
2018-04-28T16:47:54.962Z,5.70
2018-04-28T16:50:29.638Z,6.53
2018-04-28T16:53:03.918Z,6.70
2018-04-28T16:55:38.818Z,6.27
2018-04-28T16:58:13.340Z,6.07
2018-04-28T17:00:48.022Z,6.00
2018-04-28T17:03:22.738Z,6.17
2018-04-28T17:05:57.338Z,6.13
2018-04-28T17:08:32.067Z,6.00
2018-04-28T17:11:06.788Z,5.70
2018-04-28T17:13:41.510Z,6.37
2018-04-28T17:16:16.153Z,5.97
2018-04-28T17:18:50.860Z,6.00
2018-04-28T17:21:25.591Z,6.07
2018-04-28T17:24:00.106Z,5.40
2018-04-28T17:26:34.818Z,5.90
2018-04-28T17:29:09.436Z,5.80
2018-04-28T17:31:43.958Z,6.03
2018-04-28T17:34:18.683Z,6.43
2018-04-28T17:36:53.279Z,7.13
2018-04-28T17:39:28.011Z,6.47
2018-04-28T17:42:02.612Z,6.10
2018-04-28T17:44:37.457Z,5.77
2018-04-28T17:47:11.995Z,6.23
2018-04-28T17:49:46.896Z,5.70
2018-04-28T17:52:21.579Z,5.17
2018-04-28T17:54:56.285Z,5.83
2018-04-28T17:57:30.736Z,5.30
2018-04-28T18:00:05.110Z,5.90
2018-04-28T18:02:40.055Z,6.57
2018-04-28T18:05:14.906Z,5.40
2018-04-28T18:07:50.260Z,5.27
2018-04-28T18:10:24.766Z,5.80
2018-04-28T18:12:59.511Z,6.10
2018-04-28T18:15:34.302Z,7.20
2018-04-28T18:18:09.134Z,6.77
2018-04-28T18:20:43.886Z,6.37
2018-04-28T18:23:18.743Z,6.57
2018-04-28T18:25:53.170Z,10.40
2018-04-28T18:28:27.523Z,10.70
2018-04-28T18:31:02.533Z,10.87
2018-04-28T18:33:37.236Z,6.10
2018-04-28T18:36:11.961Z,6.10
2018-04-28T18:38:46.310Z,7.00
2018-04-28T18:41:21.047Z,15.70
2018-04-28T18:43:55.767Z,16.00
2018-04-28T18:46:30.665Z,13.83
2018-04-28T18:49:05.342Z,15.57
2018-04-28T18:51:40.244Z,9.30
2018-04-28T18:54:14.938Z,7.50
2018-04-28T18:56:49.437Z,6.00
2018-04-28T18:59:24.226Z,6.00
2018-04-28T19:01:58.946Z,6.30
2018-04-28T19:04:33.461Z,6.50
2018-04-28T19:07:08.061Z,6.50
2018-04-28T19:09:42.895Z,5.83
2018-04-28T19:12:17.603Z,7.97
2018-04-28T19:14:52.231Z,6.70
2018-04-28T19:17:26.930Z,6.30
2018-04-28T19:20:01.554Z,5.53
2018-04-28T19:22:36.146Z,5.50
2018-04-28T19:25:10.733Z,5.10
2018-04-28T19:27:45.417Z,5.00
2018-04-28T19:30:20.094Z,4.60
2018-04-28T19:32:54.648Z,6.40
2018-04-28T19:35:29.394Z,20.60
2018-04-28T19:38:04.192Z,11.93
2018-04-28T19:40:38.822Z,7.40
2018-04-28T19:43:13.542Z,7.50
2018-04-28T19:45:48.370Z,7.47
2018-04-28T19:48:22.750Z,8.30
2018-04-28T19:50:57.215Z,7.80
2018-04-28T19:53:32.102Z,6.50
2018-04-28T19:56:06.755Z,6.30
2018-04-28T19:58:41.318Z,7.23
2018-04-28T20:01:16.020Z,6.60
2018-04-28T20:03:50.726Z,6.40
2018-04-28T20:06:25.446Z,6.50
2018-04-28T20:08:59.618Z,5.33
2018-04-28T20:11:34.647Z,5.63
2018-04-28T20:14:09.266Z,5.67
2018-04-28T20:16:44.604Z,5.40
2018-04-28T20:19:19.694Z,6.90
2018-04-28T20:35:21.157Z,6.00
2018-04-28T20:37:56.433Z,6.30
2018-04-28T20:40:31.058Z,6.10
2018-04-28T20:43:05.354Z,6.00
2018-04-28T20:45:40.168Z,6.23
2018-04-28T20:48:14.820Z,6.70
2018-04-28T20:50:49.585Z,7.30
2018-04-28T20:53:24.292Z,7.27
2018-04-28T20:55:59.514Z,6.80
2018-04-28T20:58:34.759Z,7.50
2018-04-28T21:01:09.369Z,7.50
2018-04-28T21:03:44.174Z,7.47
2018-04-28T21:06:19.464Z,9.10
2018-04-28T21:08:53.861Z,7.10
2018-04-28T21:11:28.814Z,7.83
2018-04-28T21:14:04.173Z,8.93
2018-04-28T21:16:38.629Z,8.30
2018-04-28T21:19:14.033Z,8.37
2018-04-28T21:21:49.200Z,8.93
2018-04-28T21:24:24.376Z,8.33
2018-04-28T21:26:58.945Z,8.90
2018-04-28T21:29:34.157Z,8.40
2018-04-28T21:32:08.688Z,8.73
2018-04-28T21:34:43.177Z,8.53
2018-04-28T21:37:18.393Z,10.60
2018-04-28T21:39:53.538Z,9.23
2018-04-28T21:42:28.825Z,9.50
2018-04-28T21:45:03.273Z,10.33
2018-04-28T21:47:38.821Z,10.63
2018-04-28T21:50:13.935Z,11.07
2018-04-28T21:52:49.009Z,11.57
2018-04-28T21:55:24.089Z,12.43
2018-04-28T21:57:59.119Z,11.23
2018-04-28T22:00:34.049Z,11.70
2018-04-28T22:03:09.051Z,11.03
2018-04-28T22:05:44.265Z,10.67
2018-04-28T22:08:19.193Z,10.80
2018-04-28T22:10:54.141Z,12.00
2018-04-28T22:13:29.053Z,10.20
2018-04-28T22:16:04.025Z,11.13
2018-04-28T22:18:38.960Z,11.77
2018-04-28T22:21:13.881Z,12.00
2018-04-28T22:23:48.962Z,11.37
2018-04-28T22:26:23.637Z,11.53
2018-04-28T22:28:58.173Z,12.50
2018-04-28T22:31:33.273Z,10.63
2018-04-28T22:34:08.329Z,11.10
2018-04-28T22:36:43.331Z,10.10
2018-04-28T22:39:18.269Z,10.97
2018-04-28T22:41:52.988Z,10.70
2018-04-28T22:44:27.927Z,10.77
2018-04-28T22:47:02.791Z,9.87
2018-04-28T22:49:37.977Z,11.73
2018-04-28T22:52:12.951Z,12.30
2018-04-28T22:54:47.734Z,11.27
2018-04-28T22:57:22.585Z,10.87
2018-04-28T22:59:57.604Z,12.17
2018-04-28T23:02:32.713Z,12.00
2018-04-28T23:05:07.190Z,12.30
2018-04-28T23:07:42.170Z,12.60
2018-04-28T23:10:17.411Z,12.70
2018-04-28T23:12:52.430Z,12.60
2018-04-28T23:15:27.695Z,12.93
2018-04-28T23:18:02.613Z,12.80
2018-04-28T23:20:37.423Z,13.57
2018-04-28T23:23:12.593Z,12.80
2018-04-28T23:25:47.477Z,15.17
2018-04-28T23:28:22.653Z,13.03
2018-04-28T23:30:57.632Z,12.90
2018-04-28T23:33:32.733Z,12.50
2018-04-28T23:36:07.481Z,12.20
2018-04-28T23:38:42.285Z,14.27
2018-04-28T23:41:17.628Z,13.70
2018-04-28T23:43:52.566Z,12.60
2018-04-28T23:46:27.689Z,13.00
2018-04-28T23:49:02.845Z,13.57
2018-04-28T23:51:37.976Z,14.10
2018-04-28T23:54:12.837Z,13.37
2018-04-28T23:56:47.954Z,14.27
2018-04-28T23:59:22.988Z,13.43
